Time;durP1;ratioP1;P1;durP2;ratioP2;P2;SDS_P1;SDS_P2;PMS_P1;PMS_P2;Temp;Humidity;BMP_temperature;BMP_pressure;BME280_temperature;BME280_humidity;BME280_pressure;Samples;Min_cycle;Max_cycle;Signal;HPM_P1;HPM_P2
2023/03/22 00:01:45;;;;;;;;;;;;;;;;;;5134884;27;1707;-43
2023/03/22 00:04:12;;;;;;;;;;;;;;;;;;5135557;27;2014;-42
2023/03/22 00:06:39;;;;;;;;;;;;;;;;;;5135220;27;1977;-41
2023/03/22 00:09:06;;;;;;;;;;;;;;;;;;5135112;27;1917;-42
2023/03/22 00:11:33;;;;;;;;;;;;;;;;;;5135090;27;1936;-41
2023/03/22 00:14:00;;;;;;;;;;;;;;;;;;5134855;27;1719;-43
2023/03/22 00:16:28;;;;;;;;;;;;;;;;;;5135001;27;2356;-41
2023/03/22 00:18:55;;;;;;;;;;;;;;;;;;5134872;27;2030;-42
2023/03/22 00:21:22;;;;;;;;;;;;;;;;;;5134509;27;1466;-41
2023/03/22 00:23:49;;;;;;;;;;;;;;;;;;5134903;27;2187;-40
2023/03/22 00:26:17;;;;;;;;;;;;;;;;;;5135167;27;2011;-41
2023/03/22 00:28:44;;;;;;;;;;;;;;;;;;5135327;27;1808;-43
2023/03/22 00:31:13;;;;;;;;;;;;;;;;;;5116206;27;1961;-41
2023/03/22 00:33:41;;;;;;;;;;;;;;;;;;5116963;27;1860;-41
2023/03/22 00:36:10;;;;;;;;;;;;;;;;;;5115862;27;1961;-42
2023/03/22 00:38:37;;;;;;;;;;;;;;;;;;5116535;27;1996;-42
2023/03/22 00:41:17;;;;;;;;;;;;;;;;;;5116028;27;2425;-44
2023/03/22 00:43:45;;;;;;;;;;;;;;;;;;5135018;27;1963;-40
2023/03/22 00:46:13;;;;;;;;;;;;;;;;;;5134426;27;1814;-41
2023/03/22 00:48:41;;;;;;;;;;;;;;;;;;5134406;27;1820;-42
2023/03/22 00:51:09;;;;;;;;;;;;;;;;;;5115937;27;1852;-40
2023/03/22 00:53:37;;;;;;;;;;;;;;;;;;5134319;27;1698;-41
2023/03/22 00:56:07;;;;;;;;;;;;;;;;;;5120477;27;1998;-41
2023/03/22 00:58:43;;;;;;;;;;;;;;;;;;5115489;27;2037;-42
2023/03/22 01:01:13;;;;;;;;;;;;;;;;;;5133900;27;1579;-41
2023/03/22 01:03:41;;;;;;;;;;;;;;;;;;5115633;27;1973;-40
2023/03/22 01:06:12;;;;;;;;;;;;;;;;;;5134013;27;2029;-42
2023/03/22 01:08:40;;;;;;;;;;;;;;;;;;5133959;27;1767;-40
2023/03/22 01:11:08;;;;;;;;;;;;;;;;;;5115097;27;1888;-41
2023/03/22 01:13:38;;;;;;;;;;;;;;;;;;5115459;27;2327;-41
2023/03/22 01:16:05;;;;;;;;;;;;;;;;;;5133861;27;1346;-41
2023/03/22 01:18:33;;;;;;;;;;;;;;;;;;5133841;27;2233;-41
2023/03/22 01:21:01;;;;;;;;;;;;;;;;;;5115123;27;2105;-41
2023/03/22 01:23:28;;;;;;;;;;;;;;;;;;5115242;27;1989;-41
2023/03/22 01:25:55;;;;;;;;;;;;;;;;;;5115143;27;1902;-40
2023/03/22 01:28:23;;;;;;;;;;;;;;;;;;5115197;27;2014;-41
2023/03/22 01:30:53;;;;;;;;;;;;;;;;;;5133403;27;2185;-41
2023/03/22 01:33:20;;;;;;;;;;;;;;;;;;5133532;27;1839;-41
2023/03/22 01:35:48;;;;;;;;;;;;;;;;;;5115047;27;1274;-41
2023/03/22 01:38:16;;;;;;;;;;;;;;;;;;5133260;27;1808;-41
2023/03/22 01:40:51;;;;;;;;;;;;;;;;;;5114939;27;2445;-41
2023/03/22 01:43:20;;;;;;;;;;;;;;;;;;5114382;27;2058;-40
2023/03/22 01:45:48;;;;;;;;;;;;;;;;;;5114897;27;2336;-40
2023/03/22 01:48:20;;;;;;;;;;;;;;;;;;5114706;27;1891;-41
2023/03/22 01:50:54;;;;;;;;;;;;;;;;;;5114692;27;2052;-41
2023/03/22 01:53:27;;;;;;;;;;;;;;;;;;5114387;27;1273;-41
2023/03/22 01:55:55;;;;;;;;;;;;;;;;;;5114247;27;2040;-40
2023/03/22 01:58:28;;;;;;;;;;;;;;;;;;5114200;27;1866;-42
2023/03/22 02:00:59;;;;;;;;;;;;;;;;;;5114647;27;2182;-40
2023/03/22 02:04:00;;;;;;;;;;;;;;;;;;5114290;27;1919;-40
2023/03/22 02:06:28;;;;;;;;;;;;;;;;;;5114203;27;2233;-41
2023/03/22 02:09:09;;;;;;;;;;;;;;;;;;5114090;27;2134;-41
2023/03/22 02:11:42;;;;;;;;;;;;;;;;;;5114182;27;2177;-41
2023/03/22 02:14:27;;;;;;;;;;;;;;;;;;5114061;27;2081;-41
2023/03/22 02:17:09;;;;;;;;;;;;;;;;;;5132594;27;2037;-41
2023/03/22 02:19:44;;;;;;;;;;;;;;;;;;5113993;27;1791;-41
2023/03/22 02:22:37;;;;;;;;;;;;;;;;;;5114042;27;2230;-41
2023/03/22 02:25:23;;;;;;;;;;;;;;;;;;5132555;27;2073;-40
2023/03/22 02:28:12;;;;;;;;;;;;;;;;;;5114076;27;2089;-43
2023/03/22 02:30:49;;;;;;;;;;;;;;;;;;5113867;27;1805;-41
2023/03/22 02:33:29;;;;;;;;;;;;;;;;;;5113581;27;1756;-40
2023/03/22 02:36:12;;;;;;;;;;;;;;;;;;5132386;27;1738;-42
2023/03/22 02:38:52;;;;;;;;;;;;;;;;;;5113765;27;1892;-41
2023/03/22 02:41:19;;;;;;;;;;;;;;;;;;5113893;27;2143;-41
2023/03/22 02:44:05;;;;;;;;;;;;;;;;;;5113600;27;2120;-41
2023/03/22 02:46:47;;;;;;;;;;;;;;;;;;5132191;27;2025;-40
2023/03/22 02:49:21;;;;;;;;;;;;;;;;;;5113321;27;2316;-44
2023/03/22 02:51:51;;;;;;;;;;;;;;;;;;5132676;27;1965;-41
2023/03/22 02:54:25;;;;;;;;;;;;;;;;;;5132196;27;1840;-41
2023/03/22 02:56:54;;;;;;;;;;;;;;;;;;5146857;27;2147;-41
2023/03/22 02:59:22;;;;;;;;;;;;;;;;;;5153112;27;1817;-42
2023/03/22 03:01:51;;;;;;;;;;;;;;;;;;5151832;27;2204;-46
2023/03/22 03:04:20;;;;;;;;;;;;;;;;;;5152950;27;2041;-41
2023/03/22 03:06:51;;;;;;;;;;;;;;;;;;5152773;27;1777;-41
2023/03/22 03:09:18;;;;;;;;;;;;;;;;;;5135834;27;1548;-42
2023/03/22 03:11:47;;;;;;;;;;;;;;;;;;5156977;27;1811;-45
2023/03/22 03:14:20;;;;;;;;;;;;;;;;;;5156492;27;2000;-44
2023/03/22 03:16:55;;;;;;;;;;;;;;;;;;5134384;27;1750;-45
2023/03/22 03:19:28;;;;;;;;;;;;;;;;;;5117852;27;2236;-42
2023/03/22 03:22:22;;;;;;;;;;;;;;;;;;5117385;27;2082;-42
2023/03/22 03:25:00;;;;;;;;;;;;;;;;;;5087216;27;1908;-40
2023/03/22 03:27:34;;;;;;;;;;;;;;;;;;5135576;27;1994;-41
2023/03/22 03:30:16;;;;;;;;;;;;;;;;;;5117448;27;2103;-41
2023/03/22 03:33:05;;;;;;;;;;;;;;;;;;5135763;27;1847;-41
2023/03/22 03:35:37;;;;;;;;;;;;;;;;;;5117398;27;1467;-40
2023/03/22 03:38:11;;;;;;;;;;;;;;;;;;5135790;27;2113;-41
2023/03/22 03:40:48;;;;;;;;;;;;;;;;;;5135792;27;1973;-41
2023/03/22 03:43:15;;;;;;;;;;;;;;;;;;5135512;27;1987;-40
2023/03/22 03:45:43;;;;;;;;;;;;;;;;;;5135685;27;1820;-40
2023/03/22 03:48:13;;;;;;;;;;;;;;;;;;5142595;27;1765;-40
2023/03/22 03:50:42;;;;;;;;;;;;;;;;;;5156181;27;1695;-41
2023/03/22 03:53:10;;;;;;;;;;;;;;;;;;5137617;27;1973;-41
2023/03/22 03:55:37;;;;;;;;;;;;;;;;;;5151907;27;1518;-41
2023/03/22 03:58:05;;;;;;;;;;;;;;;;;;5116879;27;1880;-43
2023/03/22 04:00:32;;;;;;;;;;;;;;;;;;5116936;27;1964;-41
2023/03/22 04:03:19;;;;;;;;;;;;;;;;;;5134607;27;2325;-44
2023/03/22 04:06:02;;;;;;;;;;;;;;;;;;5134927;27;1928;-41
2023/03/22 04:08:34;;;;;;;;;;;;;;;;;;5116921;27;2011;-41
2023/03/22 04:11:02;;;;;;;;;;;;;;;;;;5116675;27;2353;-40
2023/03/22 04:13:30;;;;;;;;;;;;;;;;;;5116228;27;2123;-41
2023/03/22 04:16:01;;;;;;;;;;;;;;;;;;5116682;27;1755;-40
2023/03/22 04:18:33;;;;;;;;;;;;;;;;;;5116438;27;1678;-43
2023/03/22 04:21:04;;;;;;;;;;;;;;;;;;5099685;27;1967;-40
2023/03/22 04:23:39;;;;;;;;;;;;;;;;;;5116286;27;1945;-41
2023/03/22 04:26:07;;;;;;;;;;;;;;;;;;5120708;27;2001;-41
2023/03/22 04:28:48;;;;;;;;;;;;;;;;;;5116308;27;1635;-41
2023/03/22 04:31:17;;;;;;;;;;;;;;;;;;5116024;27;2041;-41
2023/03/22 04:47:20;;;;;;;;;;;;;;;;;;5191960;27;1321;-40
2023/03/22 04:49:48;;;;;;;;;;;;;;;;;;5173121;27;2294;-41
2023/03/22 04:52:16;;;;;;;;;;;;;;;;;;5177657;27;9484;-40
2023/03/22 04:54:50;;;;;;;;;;;;;;;;;;5170996;27;1177;-40
2023/03/22 04:57:18;;;;;;;;;;;;;;;;;;5170639;27;1259;-40
2023/03/22 04:59:47;;;;;;;;;;;;;;;;;;5152120;27;1288;-40
2023/03/22 05:02:15;;;;;;;;;;;;;;;;;;5152041;27;1417;-41
2023/03/22 05:04:43;;;;;;;;;;;;;;;;;;5170673;27;1370;-41
2023/03/22 05:07:28;;;;;;;;;;;;;;;;;;5152256;27;1461;-40
2023/03/22 05:09:58;;;;;;;;;;;;;;;;;;5151964;27;1462;-43
2023/03/22 05:12:25;;;;;;;;;;;;;;;;;;5151998;27;1593;-39
2023/03/22 05:15:15;;;;;;;;;;;;;;;;;;5155371;27;1291;-41
2023/03/22 05:17:43;;;;;;;;;;;;;;;;;;5151901;27;1442;-41
2023/03/22 05:20:10;;;;;;;;;;;;;;;;;;5151741;27;1327;-40
2023/03/22 05:22:39;;;;;;;;;;;;;;;;;;5151664;27;2175;-41
2023/03/22 05:25:10;;;;;;;;;;;;;;;;;;5151457;27;1933;-42
2023/03/22 05:27:41;;;;;;;;;;;;;;;;;;5151591;27;1502;-44
2023/03/22 05:30:28;;;;;;;;;;;;;;;;;;5169941;27;1319;-41
2023/03/22 05:33:20;;;;;;;;;;;;;;;;;;5150893;27;1566;-41
2023/03/22 05:35:51;;;;;;;;;;;;;;;;;;5157668;27;1096;-42
2023/03/22 05:38:21;;;;;;;;;;;;;;;;;;5130614;27;1313;-41
2023/03/22 05:40:51;;;;;;;;;;;;;;;;;;5130788;27;1603;-41
2023/03/22 05:43:19;;;;;;;;;;;;;;;;;;5130683;27;1302;-41
2023/03/22 05:45:49;;;;;;;;;;;;;;;;;;5130380;27;1909;-41
2023/03/22 05:48:38;;;;;;;;;;;;;;;;;;5130353;27;1531;-41
2023/03/22 05:51:07;;;;;;;;;;;;;;;;;;5129587;27;1336;-41
2023/03/22 05:53:35;;;;;;;;;;;;;;;;;;5129720;27;1233;-41
2023/03/22 05:56:08;;;;;;;;;;;;;;;;;;5135184;27;1381;-41
2023/03/22 05:58:39;;;;;;;;;;;;;;;;;;5117315;27;1501;-41
2023/03/22 06:01:10;;;;;;;;;;;;;;;;;;5116788;27;1591;-40
2023/03/22 06:03:58;;;;;;;;;;;;;;;;;;5120304;27;1652;-42
2023/03/22 06:06:49;;;;;;;;;;;;;;;;;;5134493;27;1988;-42
2023/03/22 06:09:30;;;;;;;;;;;;;;;;;;5116493;27;1352;-42
2023/03/22 06:11:58;;;;;;;;;;;;;;;;;;5116300;27;2473;-41
2023/03/22 06:14:26;;;;;;;;;;;;;;;;;;5134536;27;1128;-41
2023/03/22 06:17:07;;;;;;;;;;;;;;;;;;5116370;27;1670;-40
2023/03/22 06:19:35;;;;;;;;;;;;;;;;;;5116439;27;1209;-43
2023/03/22 06:22:04;;;;;;;;;;;;;;;;;;5116355;27;1233;-41
2023/03/22 06:24:34;;;;;;;;;;;;;;;;;;5116468;27;1276;-43
2023/03/22 06:27:03;;;;;;;;;;;;;;;;;;5116287;27;1979;-43
2023/03/22 06:29:31;;;;;;;;;;;;;;;;;;5134602;27;902;-42
2023/03/22 06:32:01;;;;;;;;;;;;;;;;;;5115915;27;1298;-42
2023/03/22 06:34:31;;;;;;;;;;;;;;;;;;5115700;27;1328;-40
2023/03/22 06:37:01;;;;;;;;;;;;;;;;;;5115973;27;1431;-43
2023/03/22 06:39:35;;;;;;;;;;;;;;;;;;5115899;27;2109;-40
2023/03/22 06:42:02;;;;;;;;;;;;;;;;;;5115965;27;1448;-44
2023/03/22 06:44:30;;;;;;;;;;;;;;;;;;5133940;27;1101;-40
2023/03/22 06:47:24;;;;;;;;;;;;;;;;;;5134019;27;1925;-41
2023/03/22 06:50:11;;;;;;;;;;;;;;;;;;5115522;27;1373;-55
2023/03/22 06:52:53;;;;;;;;;;;;;;;;;;5115359;27;1234;-41
2023/03/22 06:55:22;;;;;;;;;;;;;;;;;;5115324;27;1231;-41
2023/03/22 06:57:49;;;;;;;;;;;;;;;;;;5133873;27;1426;-43
2023/03/22 07:00:16;;;;;;;;;;;;;;;;;;5133815;27;974;-41
2023/03/22 07:02:43;;;;;;;;;;;;;;;;;;5133630;27;1070;-41
2023/03/22 07:05:31;;;;;;;;;;;;;;;;;;5132870;27;1914;-44
2023/03/22 07:07:58;;;;;;;;;;;;;;;;;;5115171;27;2126;-41
2023/03/22 07:10:28;;;;;;;;;;;;;;;;;;5114073;27;2101;-41
2023/03/22 07:12:56;;;;;;;;;;;;;;;;;;5115246;27;1324;-43
2023/03/22 07:15:23;;;;;;;;;;;;;;;;;;5115117;27;1394;-41
2023/03/22 07:18:00;;;;;;;;;;;;;;;;;;5114831;27;1420;-41
2023/03/22 07:20:28;;;;;;;;;;;;;;;;;;5114135;27;1528;-41
2023/03/22 07:22:57;;;;;;;;;;;;;;;;;;5114886;27;2189;-41
2023/03/22 07:25:27;;;;;;;;;;;;;;;;;;5133435;27;1433;-52
2023/03/22 07:28:05;;;;;;;;;;;;;;;;;;5114699;27;1084;-48
2023/03/22 07:30:36;;;;;;;;;;;;;;;;;;5133311;27;1127;-43
2023/03/22 07:33:04;;;;;;;;;;;;;;;;;;5133013;27;1202;-42
2023/03/22 07:35:32;;;;;;;;;;;;;;;;;;5114596;27;1363;-42
2023/03/22 07:38:00;;;;;;;;;;;;;;;;;;5114600;27;1229;-41
2023/03/22 07:40:30;;;;;;;;;;;;;;;;;;5114639;27;1506;-41
2023/03/22 07:42:58;;;;;;;;;;;;;;;;;;5114393;27;1369;-42
2023/03/22 07:45:54;;;;;;;;;;;;;;;;;;5111063;27;1933;-42
2023/03/22 07:48:30;;;;;;;;;;;;;;;;;;5132895;27;1086;-42
2023/03/22 07:51:20;;;;;;;;;;;;;;;;;;5102816;27;1198;-42
2023/03/22 07:53:47;;;;;;;;;;;;;;;;;;5114506;27;1257;-45
2023/03/22 07:56:15;;;;;;;;;;;;;;;;;;5123718;27;1453;-42
2023/03/22 07:58:42;;;;;;;;;;;;;;;;;;5142232;27;972;-42
2023/03/22 08:01:10;;;;;;;;;;;;;;;;;;5114567;27;1373;-42
2023/03/22 08:03:53;;;;;;;;;;;;;;;;;;5114047;27;1348;-41
2023/03/22 08:06:45;;;;;;;;;;;;;;;;;;5121363;27;2001;-42
2023/03/22 08:09:12;;;;;;;;;;;;;;;;;;5097541;27;1207;-42
2023/03/22 08:11:40;;;;;;;;;;;;;;;;;;5114186;27;1470;-41
2023/03/22 08:14:07;;;;;;;;;;;;;;;;;;5113977;27;1447;-42
2023/03/22 08:16:37;;;;;;;;;;;;;;;;;;5131038;27;1209;-43
2023/03/22 08:19:04;;;;;;;;;;;;;;;;;;5132478;27;1079;-42
2023/03/22 08:21:35;;;;;;;;;;;;;;;;;;5113693;27;1277;-42
2023/03/22 08:24:04;;;;;;;;;;;;;;;;;;5113921;27;1315;-42
2023/03/22 08:26:52;;;;;;;;;;;;;;;;;;5113504;27;1909;-42
2023/03/22 08:29:26;;;;;;;;;;;;;;;;;;5113854;27;1427;-42
2023/03/22 08:31:55;;;;;;;;;;;;;;;;;;5113469;27;1451;-44
2023/03/22 08:34:22;;;;;;;;;;;;;;;;;;5113687;27;1039;-42
2023/03/22 08:36:50;;;;;;;;;;;;;;;;;;5113695;28;1142;-43
2023/03/22 08:39:17;;;;;;;;;;;;;;;;;;5113557;28;1359;-42
2023/03/22 08:42:02;;;;;;;;;;;;;;;;;;5113579;27;1026;-43
2023/03/22 08:44:29;;;;;;;;;;;;;;;;;;5113634;28;1221;-43
2023/03/22 08:46:58;;;;;;;;;;;;;;;;;;5113291;28;1927;-43
2023/03/22 08:49:27;;;;;;;;;;;;;;;;;;5113473;28;1394;-43
2023/03/22 08:52:00;;;;;;;;;;;;;;;;;;5113480;28;1788;-44
2023/03/22 08:55:00;;;;;;;;;;;;;;;;;;5086078;28;1198;-43
2023/03/22 08:57:49;;;;;;;;;;;;;;;;;;5132164;28;1380;-43
2023/03/22 09:00:18;;;;;;;;;;;;;;;;;;5131808;28;905;-43
2023/03/22 09:03:05;;;;;;;;;;;;;;;;;;5113497;28;1320;-43
2023/03/22 09:05:32;;;;;;;;;;;;;;;;;;5113356;28;1216;-43
2023/03/22 09:08:00;;;;;;;;;;;;;;;;;;5113386;28;1960;-43
2023/03/22 09:10:40;;;;;;;;;;;;;;;;;;5137395;27;1157;-43
2023/03/22 09:13:12;;;;;;;;;;;;;;;;;;5133742;27;1327;-43
2023/03/22 09:15:49;;;;;;;;;;;;;;;;;;5134189;27;1327;-42
2023/03/22 09:18:26;;;;;;;;;;;;;;;;;;5133845;27;1638;-44
2023/03/22 09:20:56;;;;;;;;;;;;;;;;;;5152387;27;1207;-43
2023/03/22 09:23:31;;;;;;;;;;;;;;;;;;5133920;27;1237;-42
2023/03/22 09:26:00;;;;;;;;;;;;;;;;;;5133851;27;1676;-51
2023/03/22 09:28:29;;;;;;;;;;;;;;;;;;5133832;27;1970;-45
2023/03/22 09:31:01;;;;;;;;;;;;;;;;;;5152503;27;1076;-43
2023/03/22 09:33:29;;;;;;;;;;;;;;;;;;5136278;27;1123;-43
2023/03/22 09:35:56;;;;;;;;;;;;;;;;;;5137531;27;2245;-43
2023/03/22 09:38:26;;;;;;;;;;;;;;;;;;5137507;27;1209;-43
2023/03/22 09:41:01;;;;;;;;;;;;;;;;;;5137540;27;1193;-44
2023/03/22 09:43:41;;;;;;;;;;;;;;;;;;5137470;27;1340;-52
2023/03/22 09:46:16;;;;;;;;;;;;;;;;;;5137214;27;1906;-43
2023/03/22 09:48:45;;;;;;;;;;;;;;;;;;5155992;27;1006;-43
2023/03/22 09:51:23;;;;;;;;;;;;;;;;;;5155933;27;1011;-44
2023/03/22 09:53:50;;;;;;;;;;;;;;;;;;5155882;27;1123;-42
2023/03/22 09:56:28;;;;;;;;;;;;;;;;;;5145770;27;1305;-43
2023/03/22 09:59:03;;;;;;;;;;;;;;;;;;5135193;27;907;-42
2023/03/22 10:01:33;;;;;;;;;;;;;;;;;;5135142;27;970;-42
2023/03/22 10:04:15;;;;;;;;;;;;;;;;;;5135047;27;953;-42
2023/03/22 10:06:44;;;;;;;;;;;;;;;;;;5134775;27;1909;-43
2023/03/22 10:09:12;;;;;;;;;;;;;;;;;;5116674;27;1165;-50
2023/03/22 10:11:48;;;;;;;;;;;;;;;;;;5134858;27;1127;-50
2023/03/22 10:14:36;;;;;;;;;;;;;;;;;;5134623;27;963;-43
2023/03/22 10:17:07;;;;;;;;;;;;;;;;;;5134569;27;1030;-52
2023/03/22 10:19:46;;;;;;;;;;;;;;;;;;5134773;27;1348;-49
2023/03/22 10:22:15;;;;;;;;;;;;;;;;;;5134719;27;1087;-43
2023/03/22 10:24:44;;;;;;;;;;;;;;;;;;5134604;27;1221;-42
2023/03/22 10:27:15;;;;;;;;;;;;;;;;;;5134576;27;1902;-42
2023/03/22 10:30:01;;;;;;;;;;;;;;;;;;5134350;27;1115;-42
2023/03/22 10:32:33;;;;;;;;;;;;;;;;;;5134420;27;1232;-42
2023/03/22 10:35:14;;;;;;;;;;;;;;;;;;5134357;27;1254;-43
2023/03/22 10:37:43;;;;;;;;;;;;;;;;;;5134241;27;1140;-42
2023/03/22 10:40:31;;;;;;;;;;;;;;;;;;5134319;27;993;-42
2023/03/22 10:43:00;;;;;;;;;;;;;;;;;;5134383;27;970;-41
2023/03/22 10:45:32;;;;;;;;;;;;;;;;;;5115675;27;1440;-42
2023/03/22 10:48:02;;;;;;;;;;;;;;;;;;5134206;27;1980;-43
2023/03/22 10:50:35;;;;;;;;;;;;;;;;;;5134113;27;1038;-42
2023/03/22 10:53:16;;;;;;;;;;;;;;;;;;5134054;27;1077;-42
2023/03/22 10:55:43;;;;;;;;;;;;;;;;;;5133670;27;1294;-41
2023/03/22 10:58:11;;;;;;;;;;;;;;;;;;5133986;27;1059;-43
2023/03/22 11:00:43;;;;;;;;;;;;;;;;;;5133994;27;997;-56
2023/03/22 11:03:24;;;;;;;;;;;;;;;;;;5133728;27;1256;-41
2023/03/22 11:05:59;;;;;;;;;;;;;;;;;;5133767;27;1711;-42
2023/03/22 11:08:27;;;;;;;;;;;;;;;;;;5133718;27;1906;-42
2023/03/22 11:10:58;;;;;;;;;;;;;;;;;;5133789;27;1114;-47
2023/03/22 11:13:25;;;;;;;;;;;;;;;;;;5133737;27;939;-44
2023/03/22 11:15:57;;;;;;;;;;;;;;;;;;5133781;27;1157;-42
2023/03/22 11:18:29;;;;;;;;;;;;;;;;;;5133918;27;1078;-42
2023/03/22 11:20:58;;;;;;;;;;;;;;;;;;5133489;27;1136;-42
2023/03/22 11:23:25;;;;;;;;;;;;;;;;;;5133695;27;1158;-41
2023/03/22 11:25:55;;;;;;;;;;;;;;;;;;5133529;27;1135;-42
2023/03/22 11:28:27;;;;;;;;;;;;;;;;;;5133501;27;1913;-42
2023/03/22 11:30:57;;;;;;;;;;;;;;;;;;5133577;27;1133;-41
2023/03/22 11:33:24;;;;;;;;;;;;;;;;;;5133511;27;1156;-42
2023/03/22 11:35:56;;;;;;;;;;;;;;;;;;5133304;27;1074;-41
2023/03/22 11:38:24;;;;;;;;;;;;;;;;;;5133188;27;903;-42
2023/03/22 11:40:54;;;;;;;;;;;;;;;;;;5133187;27;1173;-41
2023/03/22 11:43:23;;;;;;;;;;;;;;;;;;5133118;27;1049;-41
2023/03/22 11:45:53;;;;;;;;;;;;;;;;;;5132781;27;1193;-43
2023/03/22 11:48:22;;;;;;;;;;;;;;;;;;5133147;27;1913;-42
2023/03/22 11:50:51;;;;;;;;;;;;;;;;;;5132821;27;1102;-41
2023/03/22 11:53:21;;;;;;;;;;;;;;;;;;5132994;27;1202;-41
2023/03/22 11:55:50;;;;;;;;;;;;;;;;;;5137990;27;1325;-41
2023/03/22 11:58:40;;;;;;;;;;;;;;;;;;5153520;27;1084;-40
2023/03/22 12:01:12;;;;;;;;;;;;;;;;;;5133566;27;1341;-46
2023/03/22 12:03:40;;;;;;;;;;;;;;;;;;5153520;27;1000;-48
2023/03/22 12:06:17;;;;;;;;;;;;;;;;;;5153487;27;1181;-55
2023/03/22 12:09:05;;;;;;;;;;;;;;;;;;5153402;27;1911;-49
2023/03/22 12:11:38;;;;;;;;;;;;;;;;;;5134959;27;1429;-44
2023/03/22 12:14:16;;;;;;;;;;;;;;;;;;5153295;27;1095;-41
2023/03/22 12:16:51;;;;;;;;;;;;;;;;;;5153178;27;1534;-51
2023/03/22 12:19:27;;;;;;;;;;;;;;;;;;5153290;27;970;-40
2023/03/22 12:21:55;;;;;;;;;;;;;;;;;;5153241;27;899;-41
2023/03/22 12:24:31;;;;;;;;;;;;;;;;;;5153049;27;986;-40
2023/03/22 12:27:01;;;;;;;;;;;;;;;;;;5153288;27;1976;-41
2023/03/22 12:29:28;;;;;;;;;;;;;;;;;;5153340;27;1304;-41
2023/03/22 12:32:05;;;;;;;;;;;;;;;;;;5134627;27;1617;-41
2023/03/22 12:34:41;;;;;;;;;;;;;;;;;;5152934;27;1101;-41
2023/03/22 12:37:14;;;;;;;;;;;;;;;;;;5152693;27;1069;-41
2023/03/22 12:39:45;;;;;;;;;;;;;;;;;;5153037;27;971;-41
2023/03/22 12:42:16;;;;;;;;;;;;;;;;;;5152933;27;1406;-41
2023/03/22 12:44:44;;;;;;;;;;;;;;;;;;5152867;27;1075;-41
2023/03/22 12:47:27;;;;;;;;;;;;;;;;;;5152641;27;1913;-42
2023/03/22 12:50:01;;;;;;;;;;;;;;;;;;5152851;27;957;-42
2023/03/22 12:52:32;;;;;;;;;;;;;;;;;;5153034;27;1143;-42
2023/03/22 12:55:30;;;;;;;;;;;;;;;;;;5152516;27;1344;-42
2023/03/22 12:57:58;;;;;;;;;;;;;;;;;;5124957;28;1721;-41
2023/03/22 13:00:46;;;;;;;;;;;;;;;;;;5132047;28;1023;-42
2023/03/22 13:03:19;;;;;;;;;;;;;;;;;;5124885;28;1363;-41
2023/03/22 13:05:48;;;;;;;;;;;;;;;;;;5131967;28;1250;-41
2023/03/22 13:08:20;;;;;;;;;;;;;;;;;;5134310;27;1905;-40
2023/03/22 13:10:56;;;;;;;;;;;;;;;;;;5135987;27;1182;-42
2023/03/22 13:13:24;;;;;;;;;;;;;;;;;;5117943;27;1076;-41
2023/03/22 13:16:12;;;;;;;;;;;;;;;;;;5117864;27;1304;-41
2023/03/22 13:18:42;;;;;;;;;;;;;;;;;;5135247;27;936;-44
2023/03/22 13:21:14;;;;;;;;;;;;;;;;;;5135946;27;1057;-43
2023/03/22 13:23:53;;;;;;;;;;;;;;;;;;5135770;27;918;-43
2023/03/22 13:26:44;;;;;;;;;;;;;;;;;;5135770;27;1006;-42
2023/03/22 13:29:17;;;;;;;;;;;;;;;;;;5135530;27;1980;-41
2023/03/22 13:31:57;;;;;;;;;;;;;;;;;;5133935;27;965;-42
2023/03/22 13:35:00;;;;;;;;;;;;;;;;;;5149791;27;985;-40
2023/03/22 13:37:33;;;;;;;;;;;;;;;;;;5071591;28;1361;-40
2023/03/22 13:40:04;;;;;;;;;;;;;;;;;;5143514;27;1110;-39
2023/03/22 13:42:35;;;;;;;;;;;;;;;;;;5155874;27;966;-42
2023/03/22 13:45:06;;;;;;;;;;;;;;;;;;5156171;27;1267;-41
2023/03/22 13:47:35;;;;;;;;;;;;;;;;;;5155612;27;1980;-41
2023/03/22 13:50:10;;;;;;;;;;;;;;;;;;5137416;27;2480;-42
2023/03/22 13:52:44;;;;;;;;;;;;;;;;;;5155962;27;1225;-41
2023/03/22 13:55:35;;;;;;;;;;;;;;;;;;5155387;27;1352;-40
2023/03/22 13:58:07;;;;;;;;;;;;;;;;;;5115437;27;1235;-42
2023/03/22 14:00:37;;;;;;;;;;;;;;;;;;5135287;27;1215;-59
2023/03/22 14:03:15;;;;;;;;;;;;;;;;;;5135260;27;1314;-49
2023/03/22 14:05:46;;;;;;;;;;;;;;;;;;5135237;27;941;-41
2023/03/22 14:08:27;;;;;;;;;;;;;;;;;;5134860;27;1971;-41
2023/03/22 14:10:57;;;;;;;;;;;;;;;;;;5134199;27;1064;-48
2023/03/22 14:13:30;;;;;;;;;;;;;;;;;;5134823;27;1162;-40
2023/03/22 14:16:17;;;;;;;;;;;;;;;;;;5134818;27;1301;-41
2023/03/22 14:18:46;;;;;;;;;;;;;;;;;;5133977;27;905;-52
2023/03/22 14:21:16;;;;;;;;;;;;;;;;;;5134801;27;1004;-47
2023/03/22 14:23:45;;;;;;;;;;;;;;;;;;5134688;27;1026;-49
2023/03/22 14:26:14;;;;;;;;;;;;;;;;;;5134380;27;1035;-49
2023/03/22 14:28:40;;;;;;;;;;;;;;;;;;5134562;27;1917;-49
2023/03/22 14:31:14;;;;;;;;;;;;;;;;;;5134794;27;955;-50
2023/03/22 14:33:42;;;;;;;;;;;;;;;;;;5134430;27;1076;-52
2023/03/22 14:36:11;;;;;;;;;;;;;;;;;;5134474;27;914;-42
2023/03/22 14:38:41;;;;;;;;;;;;;;;;;;5134551;27;1071;-46
2023/03/22 14:41:12;;;;;;;;;;;;;;;;;;5134483;27;1402;-46
2023/03/22 14:43:39;;;;;;;;;;;;;;;;;;5134243;27;1057;-43
2023/03/22 14:46:12;;;;;;;;;;;;;;;;;;5111627;27;1315;-51
2023/03/22 14:48:38;;;;;;;;;;;;;;;;;;5113313;28;1913;-41
2023/03/22 14:51:13;;;;;;;;;;;;;;;;;;5113675;28;1019;-40
2023/03/22 14:53:40;;;;;;;;;;;;;;;;;;5113474;28;940;-39
2023/03/22 14:56:24;;;;;;;;;;;;;;;;;;5112374;28;1379;-38
2023/03/22 14:58:52;;;;;;;;;;;;;;;;;;5113552;28;1052;-41
2023/03/22 15:01:22;;;;;;;;;;;;;;;;;;5113241;27;1426;-40
2023/03/22 15:03:52;;;;;;;;;;;;;;;;;;5112587;28;1249;-45
2023/03/22 15:06:18;;;;;;;;;;;;;;;;;;5112767;28;1299;-42
2023/03/22 15:08:46;;;;;;;;;;;;;;;;;;5113040;28;1975;-45
2023/03/22 15:11:13;;;;;;;;;;;;;;;;;;5113278;28;923;-42
2023/03/22 15:13:40;;;;;;;;;;;;;;;;;;5113505;28;1284;-55
2023/03/22 15:16:08;;;;;;;;;;;;;;;;;;5132803;27;1233;-41
2023/03/22 15:18:35;;;;;;;;;;;;;;;;;;5113237;27;1134;-42
2023/03/22 15:21:02;;;;;;;;;;;;;;;;;;5112884;28;1248;-43
2023/03/22 15:23:36;;;;;;;;;;;;;;;;;;5113019;28;1129;-41
2023/03/22 15:26:28;;;;;;;;;;;;;;;;;;5112962;28;1121;-41
2023/03/22 15:28:56;;;;;;;;;;;;;;;;;;5109765;28;1987;-47
2023/03/22 15:31:32;;;;;;;;;;;;;;;;;;5112117;28;1076;-43
2023/03/22 15:34:02;;;;;;;;;;;;;;;;;;5112583;28;1059;-43
2023/03/22 15:36:31;;;;;;;;;;;;;;;;;;5112766;28;924;-41
2023/03/22 15:39:05;;;;;;;;;;;;;;;;;;5112900;28;1061;-41
2023/03/22 15:41:39;;;;;;;;;;;;;;;;;;5112441;28;958;-42
2023/03/22 15:44:15;;;;;;;;;;;;;;;;;;5094223;28;1187;-41
2023/03/22 15:46:53;;;;;;;;;;;;;;;;;;5127322;27;1122;-41
2023/03/22 15:49:25;;;;;;;;;;;;;;;;;;5133052;27;1914;-45
2023/03/22 15:51:51;;;;;;;;;;;;;;;;;;5133108;27;940;-49
2023/03/22 15:54:21;;;;;;;;;;;;;;;;;;5133051;27;1081;-48
2023/03/22 15:56:48;;;;;;;;;;;;;;;;;;5132652;27;1321;-49
2023/03/22 15:59:21;;;;;;;;;;;;;;;;;;5114797;27;1203;-44
2023/03/22 16:01:47;;;;;;;;;;;;;;;;;;5132789;27;1061;-41
2023/03/22 16:04:18;;;;;;;;;;;;;;;;;;5132971;27;1161;-44
2023/03/22 16:06:44;;;;;;;;;;;;;;;;;;5132728;27;1009;-45
2023/03/22 16:09:10;;;;;;;;;;;;;;;;;;5132182;27;1919;-41
2023/03/22 16:11:36;;;;;;;;;;;;;;;;;;5132702;27;946;-45
2023/03/22 16:14:02;;;;;;;;;;;;;;;;;;5132708;27;1424;-41
2023/03/22 16:16:28;;;;;;;;;;;;;;;;;;5114460;27;925;-42
2023/03/22 16:18:54;;;;;;;;;;;;;;;;;;5142197;27;971;-40
2023/03/22 16:21:25;;;;;;;;;;;;;;;;;;5153193;27;978;-41
2023/03/22 16:23:52;;;;;;;;;;;;;;;;;;5152999;27;1194;-42
2023/03/22 16:26:17;;;;;;;;;;;;;;;;;;5153069;27;1158;-40
2023/03/22 16:28:44;;;;;;;;;;;;;;;;;;5153466;27;1930;-42
2023/03/22 16:31:15;;;;;;;;;;;;;;;;;;5153379;27;1049;-44
2023/03/22 16:33:41;;;;;;;;;;;;;;;;;;5153303;27;949;-42
2023/03/22 16:36:10;;;;;;;;;;;;;;;;;;5152908;27;977;-41
2023/03/22 16:38:36;;;;;;;;;;;;;;;;;;5134427;27;1052;-40
2023/03/22 16:41:03;;;;;;;;;;;;;;;;;;5152663;27;1419;-41
2023/03/22 16:43:29;;;;;;;;;;;;;;;;;;5134688;27;1180;-42
2023/03/22 16:45:55;;;;;;;;;;;;;;;;;;5130796;27;1917;-38
2023/03/22 16:48:25;;;;;;;;;;;;;;;;;;5131730;28;1917;-38
2023/03/22 16:50:51;;;;;;;;;;;;;;;;;;5131858;28;1116;-38
2023/03/22 16:53:17;;;;;;;;;;;;;;;;;;5131971;28;1084;-39
2023/03/22 16:55:48;;;;;;;;;;;;;;;;;;5132349;28;1317;-38
2023/03/22 16:58:16;;;;;;;;;;;;;;;;;;5132192;28;1321;-38
2023/03/22 17:00:43;;;;;;;;;;;;;;;;;;5131026;27;1133;-38
2023/03/22 17:03:12;;;;;;;;;;;;;;;;;;5131733;28;1059;-38
2023/03/22 17:05:40;;;;;;;;;;;;;;;;;;5131100;27;1170;-38
2023/03/22 17:08:13;;;;;;;;;;;;;;;;;;5131846;28;1905;-40
2023/03/22 17:10:39;;;;;;;;;;;;;;;;;;5131020;27;1163;-42
2023/03/22 17:13:05;;;;;;;;;;;;;;;;;;5131826;28;920;-38
2023/03/22 17:15:37;;;;;;;;;;;;;;;;;;5131869;28;1154;-44
2023/03/22 17:18:04;;;;;;;;;;;;;;;;;;5131765;28;1114;-43
2023/03/22 17:20:31;;;;;;;;;;;;;;;;;;5131466;27;1066;-41
2023/03/22 17:22:57;;;;;;;;;;;;;;;;;;5131638;28;1078;-41
2023/03/22 17:25:25;;;;;;;;;;;;;;;;;;5113310;28;1106;-41
2023/03/22 17:27:51;;;;;;;;;;;;;;;;;;5131642;28;1921;-43
2023/03/22 17:30:17;;;;;;;;;;;;;;;;;;5131884;28;1015;-42
2023/03/22 17:32:44;;;;;;;;;;;;;;;;;;5131600;28;1273;-47
2023/03/22 17:35:14;;;;;;;;;;;;;;;;;;5131803;28;1241;-41
2023/03/22 17:37:40;;;;;;;;;;;;;;;;;;5131669;28;1054;-43
2023/03/22 17:40:08;;;;;;;;;;;;;;;;;;5131636;28;1121;-43
2023/03/22 17:42:34;;;;;;;;;;;;;;;;;;5131442;28;900;-42
2023/03/22 17:44:59;;;;;;;;;;;;;;;;;;5130980;27;1063;-41
2023/03/22 17:47:25;;;;;;;;;;;;;;;;;;5131189;28;1376;-40
2023/03/22 17:49:51;;;;;;;;;;;;;;;;;;5131510;28;1972;-45
2023/03/22 17:52:17;;;;;;;;;;;;;;;;;;5131581;27;1050;-43
2023/03/22 17:54:43;;;;;;;;;;;;;;;;;;5133490;27;1044;-39